sensor_id;sensor_type;location;lat;lon;timestamp;P1;durP1;ratioP1;P2;durP2;ratioP2
15181;SDS011;7692;50.602;8.692;2024-01-07T00:01:54;2.40;;;2.40;;
15181;SDS011;7692;50.602;8.692;2024-01-07T00:04:23;2.60;;;2.60;;
15181;SDS011;7692;50.602;8.692;2024-01-07T00:06:51;2.50;;;2.50;;
15181;SDS011;7692;50.602;8.692;2024-01-07T00:09:21;2.40;;;2.40;;
15181;SDS011;7692;50.602;8.692;2024-01-07T00:11:50;2.50;;;2.50;;
15181;SDS011;7692;50.602;8.692;2024-01-07T00:14:18;2.60;;;2.60;;
15181;SDS011;7692;50.602;8.692;2024-01-07T00:16:47;2.30;;;2.30;;
15181;SDS011;7692;50.602;8.692;2024-01-07T00:19:15;2.20;;;2.20;;
15181;SDS011;7692;50.602;8.692;2024-01-07T00:21:44;2.30;;;2.30;;
15181;SDS011;7692;50.602;8.692;2024-01-07T00:24:12;2.40;;;2.40;;
15181;SDS011;7692;50.602;8.692;2024-01-07T00:26:42;2.30;;;2.30;;
15181;SDS011;7692;50.602;8.692;2024-01-07T00:29:10;2.30;;;2.30;;
15181;SDS011;7692;50.602;8.692;2024-01-07T00:31:39;2.30;;;2.30;;
15181;SDS011;7692;50.602;8.692;2024-01-07T00:34:07;2.20;;;2.20;;
15181;SDS011;7692;50.602;8.692;2024-01-07T00:36:36;2.30;;;2.30;;
15181;SDS011;7692;50.602;8.692;2024-01-07T00:39:05;2.40;;;2.40;;
15181;SDS011;7692;50.602;8.692;2024-01-07T00:41:33;2.53;;;2.53;;
15181;SDS011;7692;50.602;8.692;2024-01-07T00:44:03;2.40;;;2.40;;
15181;SDS011;7692;50.602;8.692;2024-01-07T00:46:31;2.40;;;2.40;;
15181;SDS011;7692;50.602;8.692;2024-01-07T00:49:00;2.50;;;2.50;;
15181;SDS011;7692;50.602;8.692;2024-01-07T00:51:29;2.40;;;2.40;;
15181;SDS011;7692;50.602;8.692;2024-01-07T00:53:58;2.63;;;2.63;;
15181;SDS011;7692;50.602;8.692;2024-01-07T00:56:26;2.40;;;2.40;;
15181;SDS011;7692;50.602;8.692;2024-01-07T00:58:54;2.30;;;2.30;;
15181;SDS011;7692;50.602;8.692;2024-01-07T01:01:24;2.60;;;2.60;;
15181;SDS011;7692;50.602;8.692;2024-01-07T01:03:52;2.50;;;2.50;;
15181;SDS011;7692;50.602;8.692;2024-01-07T01:06:21;2.30;;;2.30;;
15181;SDS011;7692;50.602;8.692;2024-01-07T01:08:49;2.30;;;2.30;;
15181;SDS011;7692;50.602;8.692;2024-01-07T01:11:18;2.10;;;2.10;;
15181;SDS011;7692;50.602;8.692;2024-01-07T01:13:47;2.50;;;2.50;;
15181;SDS011;7692;50.602;8.692;2024-01-07T01:16:15;2.40;;;2.40;;
15181;SDS011;7692;50.602;8.692;2024-01-07T01:18:47;2.40;;;2.40;;
15181;SDS011;7692;50.602;8.692;2024-01-07T01:21:15;2.40;;;2.40;;
15181;SDS011;7692;50.602;8.692;2024-01-07T01:23:44;2.40;;;2.40;;
15181;SDS011;7692;50.602;8.692;2024-01-07T01:26:12;2.40;;;2.40;;
15181;SDS011;7692;50.602;8.692;2024-01-07T01:28:40;2.50;;;2.50;;
15181;SDS011;7692;50.602;8.692;2024-01-07T01:31:12;2.40;;;2.40;;
15181;SDS011;7692;50.602;8.692;2024-01-07T01:33:41;2.40;;;2.40;;
15181;SDS011;7692;50.602;8.692;2024-01-07T01:36:11;2.50;;;2.50;;
15181;SDS011;7692;50.602;8.692;2024-01-07T01:38:40;2.50;;;2.50;;
15181;SDS011;7692;50.602;8.692;2024-01-07T01:41:08;2.43;;;2.43;;
15181;SDS011;7692;50.602;8.692;2024-01-07T01:43:37;2.53;;;2.53;;
15181;SDS011;7692;50.602;8.692;2024-01-07T01:46:05;2.40;;;2.40;;
15181;SDS011;7692;50.602;8.692;2024-01-07T01:48:34;2.40;;;2.40;;
15181;SDS011;7692;50.602;8.692;2024-01-07T01:51:03;2.60;;;2.60;;
15181;SDS011;7692;50.602;8.692;2024-01-07T01:53:33;2.40;;;2.40;;
15181;SDS011;7692;50.602;8.692;2024-01-07T01:56:02;2.57;;;2.57;;
15181;SDS011;7692;50.602;8.692;2024-01-07T01:58:31;2.40;;;2.40;;
15181;SDS011;7692;50.602;8.692;2024-01-07T02:01:00;2.30;;;2.30;;
15181;SDS011;7692;50.602;8.692;2024-01-07T02:03:29;2.40;;;2.40;;
15181;SDS011;7692;50.602;8.692;2024-01-07T02:05:57;2.37;;;2.37;;
15181;SDS011;7692;50.602;8.692;2024-01-07T02:08:26;2.40;;;2.40;;
15181;SDS011;7692;50.602;8.692;2024-01-07T02:10:56;2.50;;;2.50;;
15181;SDS011;7692;50.602;8.692;2024-01-07T02:13:24;2.50;;;2.50;;
15181;SDS011;7692;50.602;8.692;2024-01-07T02:15:53;2.40;;;2.40;;
15181;SDS011;7692;50.602;8.692;2024-01-07T02:18:21;2.40;;;2.40;;
15181;SDS011;7692;50.602;8.692;2024-01-07T02:20:49;2.50;;;2.50;;
15181;SDS011;7692;50.602;8.692;2024-01-07T02:23:18;2.60;;;2.60;;
15181;SDS011;7692;50.602;8.692;2024-01-07T02:25:47;2.50;;;2.50;;
15181;SDS011;7692;50.602;8.692;2024-01-07T02:28:16;2.40;;;2.40;;
15181;SDS011;7692;50.602;8.692;2024-01-07T02:30:45;2.47;;;2.47;;
15181;SDS011;7692;50.602;8.692;2024-01-07T02:33:13;2.40;;;2.40;;
15181;SDS011;7692;50.602;8.692;2024-01-07T02:35:42;2.40;;;2.40;;
15181;SDS011;7692;50.602;8.692;2024-01-07T02:38:10;2.40;;;2.40;;
15181;SDS011;7692;50.602;8.692;2024-01-07T02:40:38;2.40;;;2.40;;
15181;SDS011;7692;50.602;8.692;2024-01-07T02:43:08;2.50;;;2.50;;
15181;SDS011;7692;50.602;8.692;2024-01-07T02:45:36;2.40;;;2.40;;
15181;SDS011;7692;50.602;8.692;2024-01-07T02:48:05;2.50;;;2.50;;
15181;SDS011;7692;50.602;8.692;2024-01-07T02:50:34;2.50;;;2.50;;
15181;SDS011;7692;50.602;8.692;2024-01-07T02:53:02;2.57;;;2.57;;
15181;SDS011;7692;50.602;8.692;2024-01-07T02:55:31;2.50;;;2.50;;
15181;SDS011;7692;50.602;8.692;2024-01-07T02:57:59;2.50;;;2.50;;
15181;SDS011;7692;50.602;8.692;2024-01-07T03:00:29;2.40;;;2.40;;
15181;SDS011;7692;50.602;8.692;2024-01-07T03:02:58;2.50;;;2.50;;
15181;SDS011;7692;50.602;8.692;2024-01-07T03:05:26;2.40;;;2.40;;
15181;SDS011;7692;50.602;8.692;2024-01-07T03:07:58;2.60;;;2.60;;
15181;SDS011;7692;50.602;8.692;2024-01-07T03:10:27;2.47;;;2.47;;
15181;SDS011;7692;50.602;8.692;2024-01-07T03:12:55;2.40;;;2.40;;
15181;SDS011;7692;50.602;8.692;2024-01-07T03:15:24;2.27;;;2.27;;
15181;SDS011;7692;50.602;8.692;2024-01-07T03:17:53;2.50;;;2.50;;
15181;SDS011;7692;50.602;8.692;2024-01-07T03:20:22;2.57;;;2.57;;
15181;SDS011;7692;50.602;8.692;2024-01-07T03:22:50;2.43;;;2.43;;
15181;SDS011;7692;50.602;8.692;2024-01-07T03:25:19;2.60;;;2.60;;
15181;SDS011;7692;50.602;8.692;2024-01-07T03:27:47;2.27;;;2.27;;
15181;SDS011;7692;50.602;8.692;2024-01-07T03:30:15;2.50;;;2.50;;
15181;SDS011;7692;50.602;8.692;2024-01-07T03:32:44;2.60;;;2.60;;
15181;SDS011;7692;50.602;8.692;2024-01-07T03:35:14;2.20;;;2.20;;
15181;SDS011;7692;50.602;8.692;2024-01-07T03:37:42;2.50;;;2.50;;
15181;SDS011;7692;50.602;8.692;2024-01-07T03:40:11;2.50;;;2.50;;
15181;SDS011;7692;50.602;8.692;2024-01-07T03:42:39;2.60;;;2.60;;
15181;SDS011;7692;50.602;8.692;2024-01-07T03:45:08;2.60;;;2.60;;
15181;SDS011;7692;50.602;8.692;2024-01-07T03:47:37;2.50;;;2.50;;
15181;SDS011;7692;50.602;8.692;2024-01-07T03:50:05;2.53;;;2.53;;
15181;SDS011;7692;50.602;8.692;2024-01-07T03:52:35;2.43;;;2.43;;
15181;SDS011;7692;50.602;8.692;2024-01-07T03:55:04;2.50;;;2.50;;
15181;SDS011;7692;50.602;8.692;2024-01-07T03:57:32;2.50;;;2.50;;
15181;SDS011;7692;50.602;8.692;2024-01-07T04:00:01;2.60;;;2.60;;
15181;SDS011;7692;50.602;8.692;2024-01-07T04:02:30;2.50;;;2.50;;
15181;SDS011;7692;50.602;8.692;2024-01-07T04:04:59;2.70;;;2.70;;
15181;SDS011;7692;50.602;8.692;2024-01-07T04:07:27;2.53;;;2.53;;
15181;SDS011;7692;50.602;8.692;2024-01-07T04:09:57;2.60;;;2.60;;
15181;SDS011;7692;50.602;8.692;2024-01-07T04:12:25;2.60;;;2.60;;
15181;SDS011;7692;50.602;8.692;2024-01-07T04:14:54;2.50;;;2.50;;
15181;SDS011;7692;50.602;8.692;2024-01-07T04:17:22;2.57;;;2.57;;
15181;SDS011;7692;50.602;8.692;2024-01-07T04:19:51;2.60;;;2.60;;
15181;SDS011;7692;50.602;8.692;2024-01-07T04:22:19;2.60;;;2.60;;
15181;SDS011;7692;50.602;8.692;2024-01-07T04:24:48;2.60;;;2.60;;
15181;SDS011;7692;50.602;8.692;2024-01-07T04:27:18;2.50;;;2.50;;
15181;SDS011;7692;50.602;8.692;2024-01-07T04:29:46;2.50;;;2.50;;
15181;SDS011;7692;50.602;8.692;2024-01-07T04:32:14;2.43;;;2.43;;
15181;SDS011;7692;50.602;8.692;2024-01-07T04:34:43;2.57;;;2.57;;
15181;SDS011;7692;50.602;8.692;2024-01-07T04:37:11;2.30;;;2.30;;
15181;SDS011;7692;50.602;8.692;2024-01-07T04:39:40;2.37;;;2.37;;
15181;SDS011;7692;50.602;8.692;2024-01-07T04:42:08;2.83;;;2.83;;
15181;SDS011;7692;50.602;8.692;2024-01-07T04:44:40;2.60;;;2.60;;
15181;SDS011;7692;50.602;8.692;2024-01-07T04:47:22;2.50;;;2.50;;
15181;SDS011;7692;50.602;8.692;2024-01-07T04:49:51;2.80;;;2.80;;
15181;SDS011;7692;50.602;8.692;2024-01-07T04:52:19;2.50;;;2.50;;
15181;SDS011;7692;50.602;8.692;2024-01-07T04:54:48;2.50;;;2.50;;
15181;SDS011;7692;50.602;8.692;2024-01-07T04:57:16;2.50;;;2.50;;
15181;SDS011;7692;50.602;8.692;2024-01-07T04:59:46;2.50;;;2.50;;
15181;SDS011;7692;50.602;8.692;2024-01-07T05:02:15;2.70;;;2.70;;
15181;SDS011;7692;50.602;8.692;2024-01-07T05:04:43;2.60;;;2.60;;
15181;SDS011;7692;50.602;8.692;2024-01-07T05:07:12;2.60;;;2.60;;
15181;SDS011;7692;50.602;8.692;2024-01-07T05:09:40;2.50;;;2.50;;
15181;SDS011;7692;50.602;8.692;2024-01-07T05:12:08;2.70;;;2.70;;
15181;SDS011;7692;50.602;8.692;2024-01-07T05:14:37;2.57;;;2.57;;
15181;SDS011;7692;50.602;8.692;2024-01-07T05:17:06;2.40;;;2.40;;
15181;SDS011;7692;50.602;8.692;2024-01-07T05:19:35;2.40;;;2.40;;
15181;SDS011;7692;50.602;8.692;2024-01-07T05:22:03;2.40;;;2.40;;
15181;SDS011;7692;50.602;8.692;2024-01-07T05:24:32;2.50;;;2.50;;
15181;SDS011;7692;50.602;8.692;2024-01-07T05:27:01;2.50;;;2.50;;
15181;SDS011;7692;50.602;8.692;2024-01-07T05:29:29;2.50;;;2.50;;
15181;SDS011;7692;50.602;8.692;2024-01-07T05:31:59;2.50;;;2.50;;
15181;SDS011;7692;50.602;8.692;2024-01-07T05:34:30;2.27;;;2.27;;
15181;SDS011;7692;50.602;8.692;2024-01-07T05:36:59;2.50;;;2.50;;
15181;SDS011;7692;50.602;8.692;2024-01-07T05:39:27;2.50;;;2.50;;
15181;SDS011;7692;50.602;8.692;2024-01-07T05:41:56;2.60;;;2.60;;
15181;SDS011;7692;50.602;8.692;2024-01-07T05:44:24;2.57;;;2.57;;
15181;SDS011;7692;50.602;8.692;2024-01-07T05:46:55;2.50;;;2.50;;
15181;SDS011;7692;50.602;8.692;2024-01-07T05:49:23;2.50;;;2.50;;
15181;SDS011;7692;50.602;8.692;2024-01-07T05:51:53;2.47;;;2.47;;
15181;SDS011;7692;50.602;8.692;2024-01-07T05:54:22;2.60;;;2.60;;
15181;SDS011;7692;50.602;8.692;2024-01-07T05:56:50;2.60;;;2.60;;
15181;SDS011;7692;50.602;8.692;2024-01-07T05:59:19;2.30;;;2.30;;
15181;SDS011;7692;50.602;8.692;2024-01-07T06:01:47;2.40;;;2.40;;
15181;SDS011;7692;50.602;8.692;2024-01-07T06:04:15;2.53;;;2.53;;
15181;SDS011;7692;50.602;8.692;2024-01-07T06:06:43;2.50;;;2.50;;
15181;SDS011;7692;50.602;8.692;2024-01-07T06:09:15;2.40;;;2.40;;
15181;SDS011;7692;50.602;8.692;2024-01-07T06:11:43;2.57;;;2.57;;
15181;SDS011;7692;50.602;8.692;2024-01-07T06:14:11;2.40;;;2.40;;
15181;SDS011;7692;50.602;8.692;2024-01-07T06:16:39;2.50;;;2.50;;
15181;SDS011;7692;50.602;8.692;2024-01-07T06:19:06;2.40;;;2.40;;
15181;SDS011;7692;50.602;8.692;2024-01-07T06:21:34;2.60;;;2.60;;
15181;SDS011;7692;50.602;8.692;2024-01-07T06:24:02;2.60;;;2.60;;
15181;SDS011;7692;50.602;8.692;2024-01-07T06:26:32;2.60;;;2.60;;
15181;SDS011;7692;50.602;8.692;2024-01-07T06:29:01;2.43;;;2.43;;
15181;SDS011;7692;50.602;8.692;2024-01-07T06:31:29;2.50;;;2.50;;
15181;SDS011;7692;50.602;8.692;2024-01-07T06:33:57;2.70;;;2.70;;
15181;SDS011;7692;50.602;8.692;2024-01-07T06:36:25;2.60;;;2.60;;
15181;SDS011;7692;50.602;8.692;2024-01-07T06:38:53;2.50;;;2.50;;
15181;SDS011;7692;50.602;8.692;2024-01-07T06:41:21;2.50;;;2.50;;
15181;SDS011;7692;50.602;8.692;2024-01-07T06:43:50;2.53;;;2.53;;
15181;SDS011;7692;50.602;8.692;2024-01-07T06:46:20;2.40;;;2.40;;
15181;SDS011;7692;50.602;8.692;2024-01-07T06:48:48;2.70;;;2.70;;
15181;SDS011;7692;50.602;8.692;2024-01-07T06:51:17;2.60;;;2.60;;
15181;SDS011;7692;50.602;8.692;2024-01-07T06:53:45;2.60;;;2.60;;
15181;SDS011;7692;50.602;8.692;2024-01-07T06:56:13;2.60;;;2.60;;
15181;SDS011;7692;50.602;8.692;2024-01-07T06:58:42;2.60;;;2.60;;
15181;SDS011;7692;50.602;8.692;2024-01-07T07:01:11;2.60;;;2.60;;
15181;SDS011;7692;50.602;8.692;2024-01-07T07:03:40;2.60;;;2.60;;
15181;SDS011;7692;50.602;8.692;2024-01-07T07:06:08;2.60;;;2.60;;
15181;SDS011;7692;50.602;8.692;2024-01-07T07:08:39;2.70;;;2.70;;
15181;SDS011;7692;50.602;8.692;2024-01-07T07:11:08;2.60;;;2.60;;
15181;SDS011;7692;50.602;8.692;2024-01-07T07:13:36;2.60;;;2.60;;
15181;SDS011;7692;50.602;8.692;2024-01-07T07:16:05;2.60;;;2.60;;
15181;SDS011;7692;50.602;8.692;2024-01-07T07:18:35;2.40;;;2.40;;
15181;SDS011;7692;50.602;8.692;2024-01-07T07:21:04;2.70;;;2.70;;
15181;SDS011;7692;50.602;8.692;2024-01-07T07:23:31;2.50;;;2.50;;
15181;SDS011;7692;50.602;8.692;2024-01-07T07:25:59;2.60;;;2.60;;
15181;SDS011;7692;50.602;8.692;2024-01-07T07:28:28;2.50;;;2.50;;
15181;SDS011;7692;50.602;8.692;2024-01-07T07:30:56;2.60;;;2.60;;
15181;SDS011;7692;50.602;8.692;2024-01-07T07:33:25;2.87;;;2.87;;
15181;SDS011;7692;50.602;8.692;2024-01-07T07:35:55;2.80;;;2.80;;
15181;SDS011;7692;50.602;8.692;2024-01-07T07:38:23;2.60;;;2.60;;
15181;SDS011;7692;50.602;8.692;2024-01-07T07:40:51;2.60;;;2.60;;
15181;SDS011;7692;50.602;8.692;2024-01-07T07:43:20;2.50;;;2.50;;
15181;SDS011;7692;50.602;8.692;2024-01-07T07:45:48;2.70;;;2.70;;
15181;SDS011;7692;50.602;8.692;2024-01-07T07:48:17;2.60;;;2.60;;
15181;SDS011;7692;50.602;8.692;2024-01-07T07:50:46;2.80;;;2.80;;
15181;SDS011;7692;50.602;8.692;2024-01-07T07:53:16;2.80;;;2.80;;
15181;SDS011;7692;50.602;8.692;2024-01-07T07:55:44;2.50;;;2.50;;
15181;SDS011;7692;50.602;8.692;2024-01-07T07:58:12;2.80;;;2.80;;
15181;SDS011;7692;50.602;8.692;2024-01-07T08:00:41;2.50;;;2.50;;
15181;SDS011;7692;50.602;8.692;2024-01-07T08:03:11;2.90;;;2.90;;
15181;SDS011;7692;50.602;8.692;2024-01-07T08:05:40;2.60;;;2.60;;
15181;SDS011;7692;50.602;8.692;2024-01-07T08:08:08;2.60;;;2.60;;
15181;SDS011;7692;50.602;8.692;2024-01-07T08:10:38;2.60;;;2.60;;
15181;SDS011;7692;50.602;8.692;2024-01-07T08:13:06;2.70;;;2.70;;
15181;SDS011;7692;50.602;8.692;2024-01-07T08:15:35;2.60;;;2.60;;
15181;SDS011;7692;50.602;8.692;2024-01-07T08:18:04;2.60;;;2.60;;
15181;SDS011;7692;50.602;8.692;2024-01-07T08:20:33;2.80;;;2.80;;
15181;SDS011;7692;50.602;8.692;2024-01-07T08:23:01;2.60;;;2.60;;
15181;SDS011;7692;50.602;8.692;2024-01-07T08:25:31;2.70;;;2.70;;
15181;SDS011;7692;50.602;8.692;2024-01-07T08:28:00;2.70;;;2.70;;
15181;SDS011;7692;50.602;8.692;2024-01-07T08:30:29;2.50;;;2.50;;
15181;SDS011;7692;50.602;8.692;2024-01-07T08:32:58;2.70;;;2.70;;
15181;SDS011;7692;50.602;8.692;2024-01-07T08:35:26;2.70;;;2.70;;
15181;SDS011;7692;50.602;8.692;2024-01-07T08:37:54;2.70;;;2.70;;
15181;SDS011;7692;50.602;8.692;2024-01-07T08:40:23;2.70;;;2.70;;
15181;SDS011;7692;50.602;8.692;2024-01-07T08:42:52;2.40;;;2.40;;
15181;SDS011;7692;50.602;8.692;2024-01-07T08:45:21;2.50;;;2.50;;
15181;SDS011;7692;50.602;8.692;2024-01-07T08:47:50;2.60;;;2.60;;
15181;SDS011;7692;50.602;8.692;2024-01-07T08:50:18;2.63;;;2.63;;
15181;SDS011;7692;50.602;8.692;2024-01-07T08:52:46;2.70;;;2.70;;
15181;SDS011;7692;50.602;8.692;2024-01-07T08:55:15;2.90;;;2.90;;
15181;SDS011;7692;50.602;8.692;2024-01-07T08:57:43;2.80;;;2.80;;
15181;SDS011;7692;50.602;8.692;2024-01-07T09:00:15;2.83;;;2.83;;
15181;SDS011;7692;50.602;8.692;2024-01-07T09:02:45;2.70;;;2.70;;
15181;SDS011;7692;50.602;8.692;2024-01-07T09:05:13;2.70;;;2.70;;
15181;SDS011;7692;50.602;8.692;2024-01-07T09:07:41;2.90;;;2.90;;
15181;SDS011;7692;50.602;8.692;2024-01-07T09:10:09;2.60;;;2.60;;
15181;SDS011;7692;50.602;8.692;2024-01-07T09:12:39;2.70;;;2.70;;
15181;SDS011;7692;50.602;8.692;2024-01-07T09:15:08;2.70;;;2.70;;
15181;SDS011;7692;50.602;8.692;2024-01-07T09:17:36;2.60;;;2.60;;
15181;SDS011;7692;50.602;8.692;2024-01-07T09:20:08;2.80;;;2.80;;
15181;SDS011;7692;50.602;8.692;2024-01-07T09:22:37;2.80;;;2.80;;
15181;SDS011;7692;50.602;8.692;2024-01-07T09:25:06;2.40;;;2.40;;
15181;SDS011;7692;50.602;8.692;2024-01-07T09:27:34;2.83;;;2.83;;
15181;SDS011;7692;50.602;8.692;2024-01-07T09:30:03;2.60;;;2.60;;
15181;SDS011;7692;50.602;8.692;2024-01-07T09:32:32;2.50;;;2.50;;
15181;SDS011;7692;50.602;8.692;2024-01-07T09:35:04;2.50;;;2.50;;
15181;SDS011;7692;50.602;8.692;2024-01-07T09:37:34;2.70;;;2.70;;
15181;SDS011;7692;50.602;8.692;2024-01-07T09:40:03;2.50;;;2.50;;
15181;SDS011;7692;50.602;8.692;2024-01-07T09:42:33;3.00;;;3.00;;
15181;SDS011;7692;50.602;8.692;2024-01-07T09:45:01;2.70;;;2.70;;
15181;SDS011;7692;50.602;8.692;2024-01-07T09:47:32;2.80;;;2.80;;
15181;SDS011;7692;50.602;8.692;2024-01-07T09:50:02;2.70;;;2.70;;
15181;SDS011;7692;50.602;8.692;2024-01-07T09:52:31;2.70;;;2.70;;
15181;SDS011;7692;50.602;8.692;2024-01-07T09:55:02;2.90;;;2.90;;
15181;SDS011;7692;50.602;8.692;2024-01-07T09:57:31;2.70;;;2.70;;
15181;SDS011;7692;50.602;8.692;2024-01-07T10:00:00;2.70;;;2.70;;
15181;SDS011;7692;50.602;8.692;2024-01-07T10:02:37;2.70;;;2.70;;
15181;SDS011;7692;50.602;8.692;2024-01-07T10:05:07;2.70;;;2.70;;
15181;SDS011;7692;50.602;8.692;2024-01-07T10:07:36;2.70;;;2.70;;
15181;SDS011;7692;50.602;8.692;2024-01-07T10:10:13;2.60;;;2.60;;
15181;SDS011;7692;50.602;8.692;2024-01-07T10:12:43;2.70;;;2.70;;
15181;SDS011;7692;50.602;8.692;2024-01-07T10:15:12;2.70;;;2.70;;
15181;SDS011;7692;50.602;8.692;2024-01-07T10:17:41;2.77;;;2.77;;
15181;SDS011;7692;50.602;8.692;2024-01-07T10:20:10;2.70;;;2.70;;
15181;SDS011;7692;50.602;8.692;2024-01-07T10:22:39;2.60;;;2.60;;
15181;SDS011;7692;50.602;8.692;2024-01-07T10:25:07;2.80;;;2.80;;
15181;SDS011;7692;50.602;8.692;2024-01-07T10:27:37;2.70;;;2.70;;
15181;SDS011;7692;50.602;8.692;2024-01-07T10:30:06;2.70;;;2.70;;
15181;SDS011;7692;50.602;8.692;2024-01-07T10:32:35;2.80;;;2.80;;
15181;SDS011;7692;50.602;8.692;2024-01-07T10:35:07;2.60;;;2.60;;
15181;SDS011;7692;50.602;8.692;2024-01-07T10:37:40;2.70;;;2.70;;
15181;SDS011;7692;50.602;8.692;2024-01-07T10:40:09;2.60;;;2.60;;
15181;SDS011;7692;50.602;8.692;2024-01-07T10:42:41;2.70;;;2.70;;
15181;SDS011;7692;50.602;8.692;2024-01-07T10:45:11;2.67;;;2.67;;
15181;SDS011;7692;50.602;8.692;2024-01-07T10:47:41;2.70;;;2.70;;
15181;SDS011;7692;50.602;8.692;2024-01-07T10:50:11;2.70;;;2.70;;
15181;SDS011;7692;50.602;8.692;2024-01-07T10:52:40;2.80;;;2.80;;
15181;SDS011;7692;50.602;8.692;2024-01-07T10:55:09;2.63;;;2.63;;
15181;SDS011;7692;50.602;8.692;2024-01-07T10:57:42;2.70;;;2.70;;
15181;SDS011;7692;50.602;8.692;2024-01-07T11:00:11;2.70;;;2.70;;
15181;SDS011;7692;50.602;8.692;2024-01-07T11:02:50;2.80;;;2.80;;
15181;SDS011;7692;50.602;8.692;2024-01-07T11:05:24;2.80;;;2.80;;
15181;SDS011;7692;50.602;8.692;2024-01-07T11:08:01;2.80;;;2.80;;
15181;SDS011;7692;50.602;8.692;2024-01-07T11:10:35;2.80;;;2.80;;
15181;SDS011;7692;50.602;8.692;2024-01-07T11:13:32;2.83;;;2.83;;
15181;SDS011;7692;50.602;8.692;2024-01-07T11:16:01;2.70;;;2.70;;
15181;SDS011;7692;50.602;8.692;2024-01-07T11:18:30;2.60;;;2.60;;
15181;SDS011;7692;50.602;8.692;2024-01-07T11:21:00;2.97;;;2.97;;
15181;SDS011;7692;50.602;8.692;2024-01-07T11:23:30;2.80;;;2.80;;
15181;SDS011;7692;50.602;8.692;2024-01-07T11:25:59;3.07;;;3.07;;
15181;SDS011;7692;50.602;8.692;2024-01-07T11:28:43;2.70;;;2.70;;
15181;SDS011;7692;50.602;8.692;2024-01-07T11:31:12;2.70;;;2.70;;
15181;SDS011;7692;50.602;8.692;2024-01-07T11:33:41;2.80;;;2.80;;
15181;SDS011;7692;50.602;8.692;2024-01-07T11:36:12;2.70;;;2.70;;
15181;SDS011;7692;50.602;8.692;2024-01-07T11:38:43;2.90;;;2.90;;
15181;SDS011;7692;50.602;8.692;2024-01-07T11:41:15;2.60;;;2.60;;
15181;SDS011;7692;50.602;8.692;2024-01-07T11:43:55;2.70;;;2.70;;
15181;SDS011;7692;50.602;8.692;2024-01-07T11:46:31;2.70;;;2.70;;
15181;SDS011;7692;50.602;8.692;2024-01-07T11:49:01;2.80;;;2.80;;
15181;SDS011;7692;50.602;8.692;2024-01-07T11:51:30;2.83;;;2.83;;
15181;SDS011;7692;50.602;8.692;2024-01-07T11:54:01;2.50;;;2.50;;
15181;SDS011;7692;50.602;8.692;2024-01-07T11:56:29;2.80;;;2.80;;
15181;SDS011;7692;50.602;8.692;2024-01-07T11:58:59;2.80;;;2.80;;
15181;SDS011;7692;50.602;8.692;2024-01-07T12:01:27;2.90;;;2.90;;
15181;SDS011;7692;50.602;8.692;2024-01-07T12:03:56;2.80;;;2.80;;
15181;SDS011;7692;50.602;8.692;2024-01-07T12:06:24;3.37;;;3.27;;
15181;SDS011;7692;50.602;8.692;2024-01-07T12:08:53;3.00;;;3.00;;
15181;SDS011;7692;50.602;8.692;2024-01-07T12:11:21;2.73;;;2.73;;
15181;SDS011;7692;50.602;8.692;2024-01-07T12:13:50;2.80;;;2.80;;
15181;SDS011;7692;50.602;8.692;2024-01-07T12:16:20;2.80;;;2.80;;
15181;SDS011;7692;50.602;8.692;2024-01-07T12:18:48;2.50;;;2.50;;
15181;SDS011;7692;50.602;8.692;2024-01-07T12:21:18;2.90;;;2.90;;
15181;SDS011;7692;50.602;8.692;2024-01-07T12:23:48;2.80;;;2.80;;
15181;SDS011;7692;50.602;8.692;2024-01-07T12:26:17;2.90;;;2.90;;
15181;SDS011;7692;50.602;8.692;2024-01-07T12:28:51;2.70;;;2.70;;
15181;SDS011;7692;50.602;8.692;2024-01-07T12:31:21;2.80;;;2.80;;
15181;SDS011;7692;50.602;8.692;2024-01-07T12:33:51;3.03;;;3.03;;
15181;SDS011;7692;50.602;8.692;2024-01-07T12:36:20;2.60;;;2.60;;
15181;SDS011;7692;50.602;8.692;2024-01-07T12:38:48;2.90;;;2.90;;
15181;SDS011;7692;50.602;8.692;2024-01-07T12:41:17;2.80;;;2.80;;
15181;SDS011;7692;50.602;8.692;2024-01-07T12:43:45;3.00;;;3.00;;
15181;SDS011;7692;50.602;8.692;2024-01-07T12:46:13;2.70;;;2.70;;
15181;SDS011;7692;50.602;8.692;2024-01-07T12:48:43;2.80;;;2.80;;
15181;SDS011;7692;50.602;8.692;2024-01-07T12:51:11;2.50;;;2.50;;
15181;SDS011;7692;50.602;8.692;2024-01-07T12:53:39;2.73;;;2.73;;
15181;SDS011;7692;50.602;8.692;2024-01-07T12:56:07;2.60;;;2.60;;
15181;SDS011;7692;50.602;8.692;2024-01-07T12:58:35;3.07;;;3.07;;
15181;SDS011;7692;50.602;8.692;2024-01-07T13:01:04;2.97;;;2.97;;
15181;SDS011;7692;50.602;8.692;2024-01-07T13:03:32;3.00;;;3.00;;
15181;SDS011;7692;50.602;8.692;2024-01-07T13:06:02;2.60;;;2.60;;
15181;SDS011;7692;50.602;8.692;2024-01-07T13:08:31;2.90;;;2.90;;
15181;SDS011;7692;50.602;8.692;2024-01-07T13:10:59;3.03;;;3.03;;
15181;SDS011;7692;50.602;8.692;2024-01-07T13:13:28;2.90;;;2.90;;
15181;SDS011;7692;50.602;8.692;2024-01-07T13:15:56;3.30;;;3.20;;
15181;SDS011;7692;50.602;8.692;2024-01-07T13:18:27;2.80;;;2.80;;
15181;SDS011;7692;50.602;8.692;2024-01-07T13:20:55;2.80;;;2.80;;
15181;SDS011;7692;50.602;8.692;2024-01-07T13:23:25;3.10;;;3.10;;
15181;SDS011;7692;50.602;8.692;2024-01-07T13:25:54;2.70;;;2.70;;
15181;SDS011;7692;50.602;8.692;2024-01-07T13:28:23;3.00;;;3.00;;
15181;SDS011;7692;50.602;8.692;2024-01-07T13:30:53;2.90;;;2.90;;
15181;SDS011;7692;50.602;8.692;2024-01-07T13:33:21;2.80;;;2.80;;
15181;SDS011;7692;50.602;8.692;2024-01-07T13:35:50;2.90;;;2.90;;
15181;SDS011;7692;50.602;8.692;2024-01-07T13:38:18;3.40;;;3.30;;
15181;SDS011;7692;50.602;8.692;2024-01-07T13:40:48;2.90;;;2.90;;
15181;SDS011;7692;50.602;8.692;2024-01-07T13:43:16;2.90;;;2.90;;
15181;SDS011;7692;50.602;8.692;2024-01-07T13:45:44;3.50;;;3.40;;
15181;SDS011;7692;50.602;8.692;2024-01-07T13:48:12;3.40;;;3.30;;
15181;SDS011;7692;50.602;8.692;2024-01-07T13:50:40;3.33;;;3.23;;
15181;SDS011;7692;50.602;8.692;2024-01-07T13:53:09;3.30;;;3.20;;
15181;SDS011;7692;50.602;8.692;2024-01-07T13:55:37;3.40;;;3.30;;
15181;SDS011;7692;50.602;8.692;2024-01-07T13:58:07;2.83;;;2.83;;
15181;SDS011;7692;50.602;8.692;2024-01-07T14:00:35;3.30;;;3.20;;
15181;SDS011;7692;50.602;8.692;2024-01-07T14:03:04;2.83;;;2.83;;
15181;SDS011;7692;50.602;8.692;2024-01-07T14:05:32;3.00;;;3.00;;
15181;SDS011;7692;50.602;8.692;2024-01-07T14:08:01;3.30;;;3.20;;
15181;SDS011;7692;50.602;8.692;2024-01-07T14:10:30;3.13;;;3.10;;
15181;SDS011;7692;50.602;8.692;2024-01-07T14:12:58;3.10;;;3.10;;
15181;SDS011;7692;50.602;8.692;2024-01-07T14:15:28;3.00;;;3.00;;
15181;SDS011;7692;50.602;8.692;2024-01-07T14:17:56;3.30;;;3.20;;
15181;SDS011;7692;50.602;8.692;2024-01-07T14:20:25;3.50;;;3.40;;
15181;SDS011;7692;50.602;8.692;2024-01-07T14:22:54;3.40;;;3.30;;
15181;SDS011;7692;50.602;8.692;2024-01-07T14:25:22;3.47;;;3.37;;
15181;SDS011;7692;50.602;8.692;2024-01-07T14:27:51;3.27;;;3.17;;
15181;SDS011;7692;50.602;8.692;2024-01-07T14:30:19;3.50;;;3.40;;
15181;SDS011;7692;50.602;8.692;2024-01-07T14:32:50;3.47;;;3.37;;
15181;SDS011;7692;50.602;8.692;2024-01-07T14:35:18;2.90;;;2.90;;
15181;SDS011;7692;50.602;8.692;2024-01-07T14:37:46;3.40;;;3.30;;
15181;SDS011;7692;50.602;8.692;2024-01-07T14:40:14;3.40;;;3.30;;
15181;SDS011;7692;50.602;8.692;2024-01-07T14:42:44;3.10;;;3.10;;
15181;SDS011;7692;50.602;8.692;2024-01-07T14:45:12;3.50;;;3.40;;
15181;SDS011;7692;50.602;8.692;2024-01-07T14:47:40;3.40;;;3.30;;
15181;SDS011;7692;50.602;8.692;2024-01-07T14:50:10;3.50;;;3.40;;
15181;SDS011;7692;50.602;8.692;2024-01-07T14:52:38;3.70;;;3.60;;
15181;SDS011;7692;50.602;8.692;2024-01-07T14:55:06;3.40;;;3.30;;
15181;SDS011;7692;50.602;8.692;2024-01-07T14:57:35;3.20;;;3.10;;
15181;SDS011;7692;50.602;8.692;2024-01-07T15:00:03;3.70;;;3.60;;
15181;SDS011;7692;50.602;8.692;2024-01-07T15:02:32;3.70;;;3.60;;
15181;SDS011;7692;50.602;8.692;2024-01-07T15:05:00;3.80;;;3.70;;
15181;SDS011;7692;50.602;8.692;2024-01-07T15:07:31;3.73;;;3.63;;
15181;SDS011;7692;50.602;8.692;2024-01-07T15:09:59;3.93;;;3.83;;
15181;SDS011;7692;50.602;8.692;2024-01-07T15:12:27;3.60;;;3.50;;